Terminal Aerodrome Forecast
Issued by NWS

Home | Current Version | Previous Version | Text Only | Print | Product List | Glossary On
Versions: 1 2 3 4 5 6 7 8 9 10 11 12 13 14 15
000
FTAK31 PAJN 250500
TAFAKT
TAF
PAKT 250524Z 2506/2606 15025G40KT 4SM RA BR SCT010 OVC020
      WS020/19060KT
      TEMPO 2506/2509 2SM +RA BR OVC015
     FM250900 17015G28KT 5SM -RA BR OVC020 WS020/25035KT
     FM251200 17010G20KT 5SM -RA BR OVC025 WS020/25025KT
     FM252100 15008KT 6SM -SHRA BR OVC030
     FM260300 16005KT P6SM VCSH SCT025 OVC050
      AMD LTD TO CLD VIS AND WIND 2506/2515=

USA.gov is the U.S. government's official web portal to all federal, state and local government web resources and services.